Time;durP1;ratioP1;P1;durP2;ratioP2;P2;SDS_P1;SDS_P2;PMS_P1;PMS_P2;Temp;Humidity;BMP_temperature;BMP_pressure;BME280_temperature;BME280_humidity;BME280_pressure;Samples;Min_cycle;Max_cycle;Signal;HPM_P1;HPM_P2
2022/10/14 00:01:15;;;;;;;10.10;3.13;;;13.50;98.00;;;;;;5051846;28;20457;-68
2022/10/14 00:03:43;;;;;;;4.40;3.00;;;13.50;98.00;;;;;;5051818;28;20457;-69
2022/10/14 00:06:13;;;;;;;7.50;3.50;;;13.50;98.00;;;;;;5051693;28;20464;-68
2022/10/14 00:08:41;;;;;;;5.93;2.90;;;13.40;98.00;;;;;;5050646;28;20824;-68
2022/10/14 00:11:10;;;;;;;4.73;2.73;;;13.50;98.00;;;;;;5051628;28;20452;-69
2022/10/14 00:13:38;;;;;;;9.37;3.13;;;13.50;98.00;;;;;;5051474;28;20501;-68
2022/10/14 00:16:06;;;;;;;6.33;3.40;;;13.60;98.00;;;;;;5051389;28;20814;-69
2022/10/14 00:18:35;;;;;;;5.20;2.93;;;13.50;98.00;;;;;;5051222;28;20529;-68
2022/10/14 00:21:02;;;;;;;3.90;2.60;;;13.50;98.00;;;;;;5051368;28;20537;-68
2022/10/14 00:23:29;;;;;;;5.03;2.80;;;13.50;98.00;;;;;;5049949;28;20490;-68
2022/10/14 00:25:57;;;;;;;5.00;2.87;;;13.50;98.00;;;;;;5051520;28;20806;-68
2022/10/14 00:28:24;;;;;;;14.30;3.47;;;13.40;98.00;;;;;;5050026;28;20855;-68
2022/10/14 00:30:55;;;;;;;6.00;3.03;;;13.30;98.00;;;;;;5051151;28;20470;-68
2022/10/14 00:33:23;;;;;;;5.50;3.20;;;13.30;98.00;;;;;;5051126;28;20568;-68
2022/10/14 00:35:56;;;;;;;7.17;2.80;;;13.30;98.00;;;;;;5049943;28;20510;-68
2022/10/14 00:38:31;;;;;;;4.90;3.30;;;13.30;98.00;;;;;;5051109;28;20518;-68
2022/10/14 00:40:58;;;;;;;4.60;3.03;;;13.30;98.00;;;;;;5051181;28;20463;-69
2022/10/14 00:43:26;;;;;;;5.03;3.00;;;13.40;98.00;;;;;;5051298;28;21019;-68
2022/10/14 00:45:54;;;;;;;5.17;2.60;;;13.40;98.00;;;;;;5051232;28;20483;-69
2022/10/14 00:48:26;;;;;;;3.90;2.57;;;13.40;98.00;;;;;;5049756;28;20468;-69
2022/10/14 00:50:57;;;;;;;7.50;3.80;;;13.40;98.00;;;;;;5051081;28;20468;-68
2022/10/14 00:53:24;;;;;;;5.20;2.97;;;13.30;98.00;;;;;;5051046;28;20483;-68
2022/10/14 00:55:51;;;;;;;4.73;2.77;;;13.30;98.00;;;;;;5050957;28;20877;-68
2022/10/14 00:58:18;;;;;;;5.77;3.00;;;13.40;98.00;;;;;;5051018;28;20495;-68
2022/10/14 01:00:45;;;;;;;5.43;3.40;;;13.40;98.00;;;;;;5051482;28;20463;-68
2022/10/14 01:03:19;;;;;;;4.70;3.10;;;13.30;98.00;;;;;;5049992;28;20465;-68
2022/10/14 01:05:53;;;;;;;12.20;2.80;;;13.30;98.00;;;;;;5051000;28;20454;-68
2022/10/14 01:08:27;;;;;;;7.43;3.63;;;13.30;98.00;;;;;;5050304;28;20467;-68
2022/10/14 01:11:02;;;;;;;4.70;3.10;;;13.40;98.00;;;;;;5050876;28;20870;-68
2022/10/14 01:13:33;;;;;;;4.00;2.13;;;13.60;98.00;;;;;;5049669;28;20486;-68
2022/10/14 01:16:11;;;;;;;5.30;2.87;;;13.60;98.00;;;;;;5050925;28;20457;-68
2022/10/14 01:18:51;;;;;;;4.70;2.73;;;13.50;98.00;;;;;;5050682;28;20469;-68
2022/10/14 01:21:25;;;;;;;7.30;4.10;;;13.50;98.00;;;;;;5050654;28;20511;-69
2022/10/14 01:24:14;;;;;;;3.80;2.60;;;13.50;98.00;;;;;;5050770;28;20453;-69
2022/10/14 01:27:02;;;;;;;3.80;2.63;;;13.40;98.00;;;;;;5050801;28;20942;-68
2022/10/14 01:30:11;;;;;;;6.53;2.73;;;13.50;98.00;;;;;;5054396;28;20467;-68
2022/10/14 01:32:45;;;;;;;5.30;3.13;;;13.50;98.00;;;;;;4992538;28;21057;-68
2022/10/14 01:35:23;;;;;;;5.57;3.77;;;13.50;98.00;;;;;;5047714;28;20489;-68
2022/10/14 01:37:56;;;;;;;7.17;3.83;;;13.50;98.00;;;;;;5053227;28;20460;-68
2022/10/14 01:40:35;;;;;;;6.47;3.17;;;13.50;98.00;;;;;;5054393;28;20969;-69
2022/10/14 01:43:04;;;;;;;12.50;3.90;;;13.70;98.00;;;;;;5053049;28;20516;-68
2022/10/14 01:45:35;;;;;;;8.57;3.90;;;13.70;98.00;;;;;;5054375;28;20446;-68
2022/10/14 01:48:04;;;;;;;8.73;3.90;;;13.80;98.00;;;;;;5053955;28;20836;-68
2022/10/14 01:50:35;;;;;;;6.23;2.93;;;13.80;98.00;;;;;;5054287;28;20845;-69
2022/10/14 01:53:06;;;;;;;5.33;3.30;;;13.90;98.00;;;;;;5054328;28;20463;-68
2022/10/14 01:55:37;;;;;;;3.57;2.77;;;13.80;98.00;;;;;;5054028;28;20487;-68
2022/10/14 01:58:06;;;;;;;6.43;3.13;;;13.70;98.00;;;;;;5054535;28;20459;-68
2022/10/14 02:00:35;;;;;;;7.33;3.67;;;13.60;98.00;;;;;;5053964;28;20551;-69
2022/10/14 02:03:02;;;;;;;6.20;3.27;;;13.60;98.00;;;;;;5053977;28;20459;-68
2022/10/14 02:05:35;;;;;;;7.03;3.50;;;13.60;98.00;;;;;;5053796;28;20481;-68
2022/10/14 02:08:11;;;;;;;5.97;3.13;;;13.60;98.00;;;;;;5053907;28;20844;-68
2022/10/14 02:11:00;;;;;;;6.10;3.63;;;13.70;98.00;;;;;;5053944;28;20461;-68
2022/10/14 02:13:43;;;;;;;6.27;3.40;;;13.80;98.00;;;;;;5053953;28;21025;-68
2022/10/14 02:16:18;;;;;;;6.70;3.60;;;13.70;98.00;;;;;;5053585;28;20482;-68
2022/10/14 02:18:51;;;;;;;5.00;2.87;;;13.60;98.00;;;;;;5053718;28;20462;-68
2022/10/14 02:21:25;;;;;;;5.23;3.63;;;13.60;98.00;;;;;;5053510;28;20452;-68
2022/10/14 02:23:59;;;;;;;8.13;3.77;;;13.60;98.00;;;;;;5053634;28;20468;-68
2022/10/14 02:26:28;;;;;;;8.40;3.60;;;13.60;98.00;;;;;;5053515;28;20460;-68
2022/10/14 02:28:56;;;;;;;5.03;3.10;;;13.60;98.00;;;;;;5053532;28;20969;-68
2022/10/14 02:31:26;;;;;;;4.97;3.03;;;13.70;98.00;;;;;;5053333;28;20859;-68
2022/10/14 02:33:58;;;;;;;5.00;3.43;;;13.60;98.00;;;;;;5053267;28;20490;-68
2022/10/14 02:36:29;;;;;;;6.60;3.43;;;13.60;98.00;;;;;;5053657;28;21000;-68
2022/10/14 02:39:00;;;;;;;7.37;3.63;;;13.70;98.00;;;;;;5052090;28;20456;-68
2022/10/14 02:41:35;;;;;;;6.97;3.37;;;13.70;98.00;;;;;;5053532;28;21110;-68
2022/10/14 02:44:04;;;;;;;30.33;4.30;;;13.80;98.00;;;;;;5053270;28;20971;-68
2022/10/14 02:46:34;;;;;;;4.80;3.00;;;13.80;98.00;;;;;;5053184;28;20470;-67
2022/10/14 02:49:02;;;;;;;9.10;3.70;;;13.70;98.00;;;;;;5053059;28;20465;-68
2022/10/14 02:51:29;;;;;;;4.93;3.50;;;13.80;98.00;;;;;;5053163;28;20462;-68
2022/10/14 02:53:56;;;;;;;6.07;3.50;;;13.70;98.00;;;;;;5053114;28;20485;-68
2022/10/14 02:56:24;;;;;;;3.57;2.50;;;13.80;98.00;;;;;;5053232;28;20460;-68
2022/10/14 02:58:51;;;;;;;6.23;2.93;;;13.90;98.00;;;;;;5052869;28;20497;-68
2022/10/14 03:01:18;;;;;;;5.20;2.93;;;13.80;98.00;;;;;;5052841;28;20470;-68
2022/10/14 03:03:46;;;;;;;7.90;3.00;;;13.70;98.00;;;;;;5052991;28;20450;-68
2022/10/14 03:06:13;;;;;;;3.67;2.33;;;13.70;98.00;;;;;;5051617;28;20503;-68
2022/10/14 03:08:40;;;;;;;4.10;2.90;;;13.60;98.00;;;;;;5052806;28;20456;-68
2022/10/14 03:11:08;;;;;;;7.03;3.60;;;13.60;98.00;;;;;;5051492;28;20885;-68
2022/10/14 03:13:35;;;;;;;5.47;2.80;;;13.70;98.00;;;;;;5052463;28;20451;-68
2022/10/14 03:16:02;;;;;;;5.90;2.23;;;13.80;98.00;;;;;;5052540;28;20483;-68
2022/10/14 03:18:30;;;;;;;2.40;2.30;;;13.70;98.00;;;;;;5052645;28;20455;-68
2022/10/14 03:21:00;;;;;;;5.37;2.67;;;13.70;98.00;;;;;;5051185;28;20458;-68
2022/10/14 03:23:27;;;;;;;3.90;2.23;;;13.70;98.00;;;;;;5052560;28;20450;-68
2022/10/14 03:25:54;;;;;;;5.00;2.83;;;13.60;98.00;;;;;;5052336;28;20968;-68
2022/10/14 03:28:21;;;;;;;3.73;2.47;;;13.70;98.00;;;;;;5051045;28;20467;-68
2022/10/14 03:30:48;;;;;;;5.70;2.93;;;13.60;98.00;;;;;;5052278;28;20461;-68
2022/10/14 03:33:15;;;;;;;4.40;3.30;;;13.60;98.00;;;;;;5052464;28;20461;-68
2022/10/14 03:35:42;;;;;;;4.10;2.87;;;13.70;98.00;;;;;;5052307;28;21051;-68
2022/10/14 03:38:11;;;;;;;3.87;2.30;;;13.70;98.00;;;;;;5052298;28;20461;-68
2022/10/14 03:40:38;;;;;;;4.17;2.40;;;13.60;98.00;;;;;;5052137;28;20455;-68
2022/10/14 03:43:05;;;;;;;17.63;2.70;;;13.60;98.00;;;;;;5051988;28;20459;-67
2022/10/14 03:45:32;;;;;;;2.80;2.10;;;13.60;98.00;;;;;;5052139;28;20449;-67
2022/10/14 03:47:59;;;;;;;3.50;2.77;;;13.60;98.00;;;;;;5050723;28;20467;-69
2022/10/14 03:50:26;;;;;;;4.53;2.43;;;13.60;98.00;;;;;;5051847;28;20970;-68
2022/10/14 03:52:53;;;;;;;3.10;2.10;;;13.60;98.00;;;;;;5051041;28;20522;-68
2022/10/14 03:55:23;;;;;;;5.03;2.10;;;13.50;98.00;;;;;;5051822;28;20514;-68
2022/10/14 03:57:50;;;;;;;2.50;2.00;;;13.50;98.00;;;;;;5051908;28;20500;-69
2022/10/14 04:00:19;;;;;;;4.87;2.63;;;13.50;98.00;;;;;;5050712;28;20542;-68
2022/10/14 04:02:46;;;;;;;4.10;2.50;;;13.50;98.00;;;;;;5052324;28;20458;-68
2022/10/14 04:05:14;;;;;;;5.60;2.63;;;13.50;98.00;;;;;;5051764;28;20464;-68
2022/10/14 04:07:41;;;;;;;3.77;2.20;;;13.50;98.00;;;;;;5050449;28;20509;-68
2022/10/14 04:10:09;;;;;;;9.07;2.90;;;13.50;98.00;;;;;;5051695;28;21042;-68
2022/10/14 04:12:39;;;;;;;5.67;2.60;;;13.60;98.00;;;;;;5050441;28;20497;-68
2022/10/14 04:15:07;;;;;;;2.73;2.20;;;13.60;98.00;;;;;;5051307;28;20483;-68
2022/10/14 04:17:34;;;;;;;4.77;2.50;;;13.60;98.00;;;;;;5051603;28;20454;-68
2022/10/14 04:20:01;;;;;;;3.53;2.27;;;13.60;98.00;;;;;;5050216;28;20861;-68
2022/10/14 04:22:28;;;;;;;5.63;2.33;;;13.60;98.00;;;;;;5051348;28;20468;-67
2022/10/14 04:24:55;;;;;;;9.43;2.57;;;13.70;98.00;;;;;;5051376;28;20462;-68
2022/10/14 04:27:22;;;;;;;3.50;2.30;;;13.80;98.00;;;;;;5051245;28;20450;-68
2022/10/14 04:29:53;;;;;;;3.07;1.97;;;13.70;98.00;;;;;;5051358;28;20654;-68
2022/10/14 04:32:20;;;;;;;6.97;2.80;;;13.60;98.00;;;;;;5051261;28;20505;-68
2022/10/14 04:34:47;;;;;;;5.10;2.60;;;13.50;98.00;;;;;;5049944;28;20478;-68
2022/10/14 04:37:14;;;;;;;3.20;2.17;;;13.50;98.00;;;;;;5051214;28;20957;-68
2022/10/14 04:39:43;;;;;;;6.00;2.63;;;13.50;98.00;;;;;;5051553;28;20463;-68
2022/10/14 04:42:10;;;;;;;5.03;2.87;;;13.50;98.00;;;;;;5051404;28;20522;-67
2022/10/14 04:44:37;;;;;;;5.17;2.80;;;13.30;98.00;;;;;;5051117;28;20463;-68
2022/10/14 04:47:05;;;;;;;3.27;2.10;;;13.30;98.00;;;;;;5051234;28;20474;-68
2022/10/14 04:49:33;;;;;;;6.53;2.70;;;13.20;98.00;;;;;;5050506;28;20468;-68
2022/10/14 04:52:00;;;;;;;4.13;2.50;;;13.20;98.00;;;;;;5051217;28;20537;-68
2022/10/14 04:54:27;;;;;;;4.37;2.50;;;13.20;98.00;;;;;;5050744;28;20468;-68
2022/10/14 04:56:54;;;;;;;9.10;2.47;;;13.20;98.00;;;;;;5051277;28;20492;-68
2022/10/14 04:59:23;;;;;;;3.60;2.70;;;13.10;98.00;;;;;;5050938;28;20810;-68
2022/10/14 05:01:50;;;;;;;4.93;2.80;;;13.10;98.00;;;;;;5049922;28;20457;-68
2022/10/14 05:04:18;;;;;;;5.13;2.40;;;13.10;98.00;;;;;;5054823;28;20479;-68
2022/10/14 05:06:45;;;;;;;4.93;2.30;;;13.10;98.00;;;;;;5055126;28;20467;-68
2022/10/14 05:09:12;;;;;;;6.30;3.87;;;13.10;98.00;;;;;;5054965;28;20467;-68
2022/10/14 05:11:40;;;;;;;4.03;2.53;;;13.20;98.00;;;;;;5054999;28;21100;-68
2022/10/14 05:14:07;;;;;;;9.00;2.80;;;13.30;98.00;;;;;;5054746;28;20463;-68
2022/10/14 05:16:35;;;;;;;3.20;2.30;;;13.40;98.00;;;;;;5053518;28;20488;-69
2022/10/14 05:19:02;;;;;;;4.70;2.67;;;13.40;98.00;;;;;;5054566;28;20466;-68
2022/10/14 05:21:30;;;;;;;3.33;2.13;;;13.40;98.00;;;;;;5054855;28;20457;-68
2022/10/14 05:23:57;;;;;;;5.27;3.20;;;13.20;98.00;;;;;;5054794;28;20513;-68
2022/10/14 05:26:24;;;;;;;4.00;2.30;;;13.10;98.00;;;;;;5054533;28;20460;-68
2022/10/14 05:28:52;;;;;;;5.17;2.50;;;13.10;98.00;;;;;;5053401;28;20456;-68
2022/10/14 05:31:20;;;;;;;4.33;2.63;;;13.10;98.00;;;;;;5054368;28;20456;-68
2022/10/14 05:33:47;;;;;;;3.03;2.27;;;13.10;98.00;;;;;;5053322;28;20467;-69
2022/10/14 05:36:14;;;;;;;2.57;2.10;;;13.10;98.00;;;;;;5054167;28;20484;-68
2022/10/14 05:38:43;;;;;;;2.53;2.07;;;13.10;98.00;;;;;;5054489;28;20537;-68
2022/10/14 05:41:10;;;;;;;2.83;1.90;;;13.10;98.00;;;;;;5054188;28;20450;-68
2022/10/14 05:43:37;;;;;;;2.50;1.73;;;13.20;98.00;;;;;;5054384;28;20454;-68
2022/10/14 05:46:04;;;;;;;4.37;2.37;;;13.10;98.00;;;;;;5053063;28;20491;-68
2022/10/14 05:48:33;;;;;;;3.70;2.40;;;13.10;98.00;;;;;;5053196;28;20520;-68
2022/10/14 05:51:02;;;;;;;3.60;2.70;;;13.10;98.00;;;;;;5054134;28;20800;-68
2022/10/14 05:53:31;;;;;;;4.37;2.23;;;13.20;98.00;;;;;;5054218;28;20458;-68
2022/10/14 05:56:04;;;;;;;5.10;2.80;;;13.20;98.00;;;;;;5053820;28;20488;-68
2022/10/14 05:58:31;;;;;;;4.17;2.43;;;13.20;98.00;;;;;;5054239;28;20458;-68
2022/10/14 06:01:00;;;;;;;3.60;2.43;;;13.20;98.00;;;;;;5054092;28;20543;-69
2022/10/14 06:03:27;;;;;;;6.63;3.03;;;13.30;98.00;;;;;;5054177;28;20483;-68
2022/10/14 06:05:54;;;;;;;2.30;1.93;;;13.50;98.00;;;;;;5055337;28;20466;-68
2022/10/14 06:08:22;;;;;;;5.23;2.30;;;13.40;98.00;;;;;;5053771;28;20832;-69
2022/10/14 06:10:49;;;;;;;3.63;2.50;;;13.40;98.00;;;;;;5052540;28;20458;-68
2022/10/14 06:13:17;;;;;;;3.70;2.47;;;13.40;98.00;;;;;;5053400;28;20516;-67
2022/10/14 06:15:44;;;;;;;6.30;2.87;;;13.30;98.00;;;;;;5053673;28;20536;-68
2022/10/14 06:18:11;;;;;;;4.23;2.50;;;13.30;98.00;;;;;;5053616;28;20460;-68
2022/10/14 06:20:38;;;;;;;5.97;3.30;;;13.30;98.00;;;;;;5053597;28;20471;-68
2022/10/14 06:23:06;;;;;;;4.63;2.90;;;13.40;98.00;;;;;;5053473;28;20958;-67
2022/10/14 06:25:33;;;;;;;6.30;2.40;;;13.40;98.00;;;;;;5053681;28;20878;-68
2022/10/14 06:28:03;;;;;;;6.03;2.87;;;13.50;98.00;;;;;;5052347;28;20464;-69
2022/10/14 06:30:32;;;;;;;2.47;1.83;;;13.80;98.00;;;;;;5053405;28;20478;-68
2022/10/14 06:32:59;;;;;;;5.70;2.60;;;13.90;98.00;;;;;;5053372;28;20472;-68
2022/10/14 06:35:27;;;;;;;3.33;2.37;;;14.00;98.00;;;;;;5053175;28;20476;-68
2022/10/14 06:37:54;;;;;;;3.87;2.40;;;14.00;98.00;;;;;;5053263;28;20478;-68
2022/10/14 06:40:21;;;;;;;3.63;2.00;;;13.90;98.00;;;;;;5053291;28;20451;-68
2022/10/14 06:42:48;;;;;;;3.60;2.20;;;13.80;98.00;;;;;;5053335;28;20524;-67
2022/10/14 06:45:15;;;;;;;3.40;2.30;;;13.90;98.00;;;;;;5053283;28;20463;-66
2022/10/14 06:47:44;;;;;;;3.53;2.90;;;13.80;98.00;;;;;;5053388;28;20460;-67
2022/10/14 06:50:11;;;;;;;6.30;2.80;;;13.80;98.00;;;;;;5053121;28;20463;-66
2022/10/14 06:52:38;;;;;;;4.10;2.63;;;13.80;98.00;;;;;;5053069;28;20467;-66
2022/10/14 06:55:06;;;;;;;3.27;2.30;;;14.00;98.00;;;;;;5052825;28;20464;-66
2022/10/14 06:57:33;;;;;;;5.60;3.00;;;14.00;98.00;;;;;;5053430;28;20802;-66
2022/10/14 07:00:00;;;;;;;6.93;3.13;;;14.00;98.00;;;;;;5053016;28;20544;-66
2022/10/14 07:02:27;;;;;;;3.97;2.90;;;14.00;98.00;;;;;;5052917;28;20954;-66
2022/10/14 07:04:56;;;;;;;6.17;3.40;;;14.00;98.00;;;;;;5052931;28;20463;-66
2022/10/14 07:07:24;;;;;;;4.70;2.57;;;14.00;98.00;;;;;;5052729;28;20515;-66
2022/10/14 07:09:52;;;;;;;3.80;2.80;;;14.10;98.00;;;;;;5052772;28;20990;-66
2022/10/14 07:12:20;;;;;;;5.27;3.40;;;14.20;98.00;;;;;;5052685;28;20467;-66
2022/10/14 07:14:47;;;;;;;8.10;3.40;;;14.30;98.00;;;;;;5052604;28;20818;-66
2022/10/14 07:17:14;;;;;;;6.83;3.20;;;14.30;98.00;;;;;;5052483;28;20483;-66
2022/10/14 07:19:41;;;;;;;6.77;3.67;;;14.30;98.00;;;;;;5052546;28;20890;-67
2022/10/14 07:22:11;;;;;;;9.60;3.80;;;14.30;98.00;;;;;;5052409;28;20480;-67
2022/10/14 07:24:38;;;;;;;5.53;3.30;;;14.40;98.00;;;;;;5052026;28;20471;-66
2022/10/14 07:27:05;;;;;;;7.37;3.70;;;14.50;98.00;;;;;;5052020;28;20990;-66
2022/10/14 07:29:33;;;;;;;4.93;3.00;;;14.70;98.00;;;;;;5052325;28;20468;-65
2022/10/14 07:32:00;;;;;;;5.90;3.30;;;14.70;98.00;;;;;;5052119;28;20545;-66
2022/10/14 07:34:27;;;;;;;7.23;4.00;;;14.60;98.00;;;;;;5052220;28;21085;-66
2022/10/14 07:36:54;;;;;;;4.70;2.60;;;14.70;98.00;;;;;;5052148;28;20485;-66
2022/10/14 07:39:24;;;;;;;4.17;2.80;;;14.80;98.00;;;;;;5052034;28;20488;-66
2022/10/14 07:41:51;;;;;;;5.30;3.43;;;14.90;98.00;;;;;;5052334;28;20534;-66
2022/10/14 07:44:19;;;;;;;7.20;3.90;;;15.00;98.00;;;;;;5051989;28;20896;-67
2022/10/14 07:46:47;;;;;;;9.70;3.23;;;14.90;98.00;;;;;;5052191;28;20498;-66
2022/10/14 07:49:16;;;;;;;4.67;3.57;;;15.00;98.00;;;;;;5052461;28;20460;-66
2022/10/14 07:51:44;;;;;;;5.97;3.20;;;15.00;98.00;;;;;;5034655;28;20851;-66
2022/10/14 07:54:15;;;;;;;11.97;4.47;;;15.10;98.00;;;;;;5052616;28;20464;-66
2022/10/14 07:56:47;;;;;;;3.93;2.53;;;15.00;98.00;;;;;;5050953;28;20487;-66
2022/10/14 07:59:15;;;;;;;6.00;3.40;;;14.80;98.00;;;;;;5052473;28;20488;-67
2022/10/14 08:01:45;;;;;;;7.60;3.30;;;14.80;98.00;;;;;;5052409;28;20457;-66
2022/10/14 08:04:13;;;;;;;5.07;3.20;;;14.90;98.00;;;;;;5052305;28;20452;-66
2022/10/14 08:06:40;;;;;;;4.03;2.80;;;15.00;98.00;;;;;;5052607;28;20468;-65
2022/10/14 08:09:07;;;;;;;5.87;3.80;;;15.00;98.00;;;;;;5050756;28;20466;-66
2022/10/14 08:11:35;;;;;;;5.93;3.07;;;15.10;98.00;;;;;;5052381;28;20459;-66
2022/10/14 08:14:04;;;;;;;6.83;3.27;;;15.20;98.00;;;;;;5049696;28;20530;-66
2022/10/14 08:16:33;;;;;;;5.87;3.40;;;15.40;98.00;;;;;;5041318;28;20500;-66
2022/10/14 08:19:02;;;;;;;4.43;2.90;;;15.60;98.00;;;;;;5041404;28;20465;-66
2022/10/14 08:21:29;;;;;;;5.87;2.97;;;15.50;98.00;;;;;;5049345;28;20465;-66
2022/10/14 08:23:56;;;;;;;5.47;2.60;;;15.50;98.00;;;;;;5049664;28;20460;-65
2022/10/14 08:26:28;;;;;;;2.73;2.40;;;15.50;98.00;;;;;;5049800;28;20461;-67
2022/10/14 08:28:55;;;;;;;4.13;2.83;;;15.60;98.00;;;;;;5049503;28;20496;-66
2022/10/14 08:31:24;;;;;;;4.33;3.07;;;15.80;98.00;;;;;;5049357;28;20488;-66
2022/10/14 08:33:51;;;;;;;7.13;3.20;;;16.00;98.00;;;;;;5049500;28;20461;-66
2022/10/14 08:36:20;;;;;;;6.37;3.40;;;15.90;98.00;;;;;;5049048;28;20587;-67
2022/10/14 08:38:48;;;;;;;4.43;3.00;;;16.00;98.00;;;;;;5049329;28;20467;-66
2022/10/14 08:41:35;;;;;;;4.13;2.83;;;16.00;98.00;;;;;;5049199;28;20501;-66
2022/10/14 08:44:13;;;;;;;4.10;2.57;;;16.00;98.00;;;;;;5049532;28;20469;-66
2022/10/14 08:46:45;;;;;;;3.70;2.73;;;16.00;98.00;;;;;;5049218;28;20479;-66
2022/10/14 08:49:21;;;;;;;3.67;2.97;;;16.00;98.00;;;;;;5047527;28;20515;-67
2022/10/14 08:51:52;;;;;;;4.13;2.50;;;16.00;98.00;;;;;;5046335;28;20459;-67
2022/10/14 08:54:27;;;;;;;5.00;2.83;;;15.90;98.00;;;;;;5049259;28;20465;-66
2022/10/14 08:56:56;;;;;;;5.20;2.93;;;15.80;98.00;;;;;;5049241;28;20500;-65
2022/10/14 08:59:25;;;;;;;8.00;3.33;;;15.90;98.00;;;;;;5048869;28;20462;-65
2022/10/14 09:01:59;;;;;;;5.87;2.93;;;15.80;98.00;;;;;;5049197;28;20977;-65
2022/10/14 09:04:26;;;;;;;5.73;3.00;;;15.90;98.00;;;;;;5048864;28;20796;-66
2022/10/14 09:06:55;;;;;;;3.40;2.60;;;15.90;98.00;;;;;;5047971;28;20961;-65
2022/10/14 09:09:26;;;;;;;6.40;3.60;;;15.90;98.00;;;;;;5051294;28;20881;-65
2022/10/14 09:11:56;;;;;;;6.80;3.30;;;15.90;98.00;;;;;;5051577;28;20519;-65
2022/10/14 09:14:27;;;;;;;4.43;2.60;;;15.90;98.00;;;;;;5051682;28;20882;-65
2022/10/14 09:17:02;;;;;;;8.47;3.23;;;15.90;98.00;;;;;;5051512;28;20837;-65
2022/10/14 09:19:33;;;;;;;5.03;2.50;;;16.00;98.00;;;;;;5051492;28;20452;-65
2022/10/14 09:22:01;;;;;;;4.57;3.10;;;16.20;98.00;;;;;;5051450;28;20462;-65
2022/10/14 09:24:34;;;;;;;3.10;2.40;;;16.20;98.00;;;;;;5051467;28;20552;-66
2022/10/14 09:27:04;;;;;;;4.87;3.30;;;16.30;98.00;;;;;;5051626;28;20445;-65
2022/10/14 09:29:36;;;;;;;5.23;3.27;;;16.30;98.00;;;;;;5051445;28;20465;-65
2022/10/14 09:32:08;;;;;;;2.87;2.30;;;16.40;98.00;;;;;;5051844;28;20466;-65
2022/10/14 09:34:38;;;;;;;4.33;3.07;;;16.60;98.00;;;;;;5051403;28;20453;-65
2022/10/14 09:37:23;;;;;;;5.80;3.10;;;16.70;98.00;;;;;;5051361;28;20488;-65
2022/10/14 09:39:51;;;;;;;4.70;2.70;;;16.80;98.00;;;;;;5051533;28;20461;-65
2022/10/14 09:42:22;;;;;;;4.60;2.90;;;16.70;98.00;;;;;;5051476;28;20457;-65
2022/10/14 09:45:09;;;;;;;4.03;2.50;;;16.60;98.00;;;;;;5051581;28;20453;-65
2022/10/14 09:47:45;;;;;;;3.70;2.53;;;16.50;98.00;;;;;;5051193;28;20469;-65
2022/10/14 09:50:31;;;;;;;4.70;2.53;;;16.50;98.00;;;;;;5054434;28;20959;-65
2022/10/14 09:53:02;;;;;;;4.00;2.67;;;16.70;98.00;;;;;;5054942;28;20870;-65
2022/10/14 09:55:30;;;;;;;6.33;3.13;;;16.70;98.00;;;;;;5053386;28;20493;-65
2022/10/14 09:58:08;;;;;;;4.00;2.73;;;16.60;98.00;;;;;;5054377;28;20550;-65
2022/10/14 10:00:37;;;;;;;6.60;2.97;;;16.50;98.00;;;;;;5054718;28;20540;-66
2022/10/14 10:03:07;;;;;;;4.53;2.43;;;16.60;98.00;;;;;;5054641;28;20464;-65
2022/10/14 10:05:35;;;;;;;3.07;2.33;;;16.60;98.00;;;;;;5054555;28;20457;-66
2022/10/14 10:08:14;;;;;;;3.70;2.50;;;16.60;98.00;;;;;;5054725;28;20465;-65
2022/10/14 10:10:55;;;;;;;5.30;2.50;;;16.70;98.00;;;;;;5054520;28;20465;-66
2022/10/14 10:13:31;;;;;;;5.23;2.57;;;16.80;98.00;;;;;;5054823;28;20460;-65
2022/10/14 10:15:59;;;;;;;4.37;2.73;;;17.00;98.00;;;;;;5054147;28;20542;-65
2022/10/14 10:18:28;;;;;;;4.47;2.50;;;17.00;98.00;;;;;;5053215;28;20453;-65
2022/10/14 10:21:15;;;;;;;5.53;2.50;;;17.10;98.00;;;;;;5054440;28;20540;-66
2022/10/14 10:23:55;;;;;;;7.07;3.50;;;17.20;98.00;;;;;;5054128;28;20458;-65
2022/10/14 10:26:28;;;;;;;3.23;2.30;;;17.40;98.00;;;;;;5054273;28;20544;-65
2022/10/14 10:28:57;;;;;;;6.50;2.87;;;17.50;98.00;;;;;;5054167;28;20508;-66
2022/10/14 10:31:47;;;;;;;4.00;2.50;;;17.50;98.00;;;;;;5054115;28;20556;-65
2022/10/14 10:34:45;;;;;;;4.40;2.60;;;17.50;98.00;;;;;;5054136;28;20954;-66
2022/10/14 10:37:27;;;;;;;4.13;2.77;;;17.60;98.00;;;;;;5054082;28;20482;-66
2022/10/14 10:40:21;;;;;;;4.10;2.80;;;17.70;98.00;;;;;;5054232;28;20518;-66
2022/10/14 10:42:59;;;;;;;2.67;2.10;;;17.70;98.00;;;;;;5054231;28;20956;-65
2022/10/14 10:45:38;;;;;;;3.27;2.00;;;17.80;98.00;;;;;;5054198;28;20457;-66
2022/10/14 10:48:12;;;;;;;2.93;2.00;;;17.90;98.00;;;;;;5053907;28;20564;-66
2022/10/14 10:50:48;;;;;;;3.80;2.00;;;18.00;98.00;;;;;;5053833;28;20458;-65
2022/10/14 10:53:44;;;;;;;3.47;1.87;;;18.00;98.00;;;;;;5053869;28;20544;-66
2022/10/14 10:56:20;;;;;;;3.67;2.10;;;17.90;98.00;;;;;;5040491;28;20853;-65
2022/10/14 10:59:00;;;;;;;3.00;1.80;;;17.90;98.00;;;;;;5053726;28;20461;-66
2022/10/14 11:01:44;;;;;;;1.90;1.70;;;17.80;98.00;;;;;;5052480;28;20823;-65
2022/10/14 11:04:30;;;;;;;3.80;2.37;;;17.90;98.00;;;;;;5053717;28;20480;-65
2022/10/14 11:12:58;;;;;;;3.50;1.90;;;18.30;98.00;;;;;;5053723;28;20445;-65
2022/10/14 11:15:43;;;;;;;4.07;2.00;;;18.40;98.00;;;;;;5053193;28;20527;-66
2022/10/14 11:18:14;;;;;;;3.20;2.30;;;18.50;98.00;;;;;;5051976;28;20478;-66
2022/10/14 11:20:55;;;;;;;3.10;2.00;;;18.70;98.00;;;;;;5053250;28;20802;-66
2022/10/14 11:23:41;;;;;;;3.63;2.10;;;18.80;98.00;;;;;;5053578;28;20465;-66
2022/10/14 11:26:24;;;;;;;3.63;2.27;;;19.10;98.00;;;;;;5052193;28;20465;-65
2022/10/14 11:28:59;;;;;;;3.40;2.27;;;19.20;98.00;;;;;;5053344;28;20458;-67
2022/10/14 11:31:35;;;;;;;3.33;2.20;;;19.40;98.00;;;;;;5053338;28;20493;-66
2022/10/14 11:34:21;;;;;;;2.80;2.10;;;19.40;98.00;;;;;;5053103;28;20461;-67
2022/10/14 11:36:57;;;;;;;6.47;2.50;;;19.40;98.00;;;;;;5053071;28;20481;-66
2022/10/14 11:39:38;;;;;;;3.37;2.07;;;19.40;98.00;;;;;;5053010;28;20457;-66
2022/10/14 11:42:17;;;;;;;3.50;1.90;;;19.30;98.00;;;;;;5052739;28;20465;-66
2022/10/14 11:44:47;;;;;;;3.43;2.30;;;19.10;98.00;;;;;;5052947;28;20807;-66
2022/10/14 11:47:19;;;;;;;2.77;2.07;;;18.90;98.00;;;;;;5052779;28;20462;-67
2022/10/14 11:49:54;;;;;;;4.33;2.07;;;18.80;98.00;;;;;;5052763;28;20545;-67
2022/10/14 11:52:26;;;;;;;4.40;2.60;;;18.80;98.00;;;;;;5052901;28;20464;-66
2022/10/14 11:55:01;;;;;;;5.90;2.67;;;18.70;98.00;;;;;;5052489;28;20457;-66
2022/10/14 11:57:34;;;;;;;3.17;2.20;;;18.60;98.00;;;;;;5052704;28;20535;-66
2022/10/14 12:02:55;;;;;;;2.57;1.83;;;18.60;98.00;;;;;;5052546;28;20465;-65
2022/10/14 12:05:33;;;;;;;3.20;2.07;;;18.40;98.00;;;;;;5052206;28;20858;-65
2022/10/14 12:08:07;;;;;;;1.97;1.70;;;18.40;98.00;;;;;;5052452;28;20972;-65
2022/10/14 12:10:42;;;;;;;3.30;2.13;;;18.30;98.00;;;;;;5052273;28;20940;-65
2022/10/14 12:13:14;;;;;;;2.90;2.13;;;18.30;98.00;;;;;;5052082;28;20453;-65
2022/10/14 12:15:47;;;;;;;3.10;2.20;;;18.30;98.00;;;;;;5052188;28;20458;-68
2022/10/14 12:18:14;;;;;;;2.90;2.20;;;18.30;98.00;;;;;;5052025;28;20489;-66
2022/10/14 12:20:47;;;;;;;4.13;2.00;;;18.40;98.00;;;;;;5052195;28;20928;-65
2022/10/14 12:23:21;;;;;;;3.63;2.10;;;18.60;98.00;;;;;;5052438;28;20828;-64
2022/10/14 12:25:57;;;;;;;2.83;2.10;;;19.00;98.00;;;;;;5052439;28;20457;-63
2022/10/14 12:28:24;;;;;;;10.90;2.77;;;19.40;98.00;;;;;;5052292;28;20959;-63
2022/10/14 12:30:51;;;;;;;3.70;2.57;;;19.80;98.00;;;;;;5052327;28;20803;-64
2022/10/14 12:33:18;;;;;;;5.90;2.30;;;20.00;98.00;;;;;;5052344;28;20481;-64
2022/10/14 12:35:58;;;;;;;3.80;2.30;;;20.10;98.00;;;;;;5052176;28;20450;-64
2022/10/14 12:38:27;;;;;;;4.63;2.77;;;19.90;98.00;;;;;;5051877;28;20481;-63
2022/10/14 12:41:38;;;;;;;3.03;1.90;;;19.80;98.00;;;;;;5052202;28;20812;-64
2022/10/14 12:44:13;;;;;;;2.53;1.90;;;19.70;98.00;;;;;;5052093;28;20462;-64
2022/10/14 12:46:44;;;;;;;2.70;1.87;;;19.70;98.00;;;;;;5051790;28;20453;-64
2022/10/14 12:49:18;;;;;;;1.90;1.80;;;19.50;98.00;;;;;;5052198;28;20458;-64
2022/10/14 12:51:54;;;;;;;2.27;1.60;;;19.40;98.00;;;;;;5050624;28;20987;-64
2022/10/14 12:54:22;;;;;;;4.77;2.53;;;19.40;98.00;;;;;;5051634;28;20547;-64
2022/10/14 12:56:58;;;;;;;1.80;1.77;;;19.30;98.00;;;;;;5051624;28;20469;-64
2022/10/14 12:59:29;;;;;;;2.13;2.00;;;19.30;98.00;;;;;;5051720;28;20457;-64
2022/10/14 13:01:58;;;;;;;2.80;1.93;;;19.40;98.00;;;;;;5051464;28;20460;-64
2022/10/14 13:04:26;;;;;;;5.00;2.10;;;19.30;98.00;;;;;;5051649;28;20846;-64
2022/10/14 13:07:30;;;;;;;3.50;1.90;;;19.20;98.00;;;;;;5051433;28;20462;-65
2022/10/14 13:09:58;;;;;;;2.90;2.10;;;19.20;98.00;;;;;;5051816;28;20814;-66
2022/10/14 13:12:52;;;;;;;2.47;1.60;;;19.10;98.00;;;;;;5051434;28;20458;-63
2022/10/14 13:15:54;;;;;;;1.83;1.60;;;19.00;98.00;;;;;;5051561;28;20454;-63